sensor_id;sensor_type;location;lat;lon;timestamp;pressure;altitude;pressure_sealevel;temperature;humidity
69926;BME280;57217;47.286;8.530;2024-03-06T00:01:47;95292.16;;;2.11;100.00
69926;BME280;57217;47.286;8.530;2024-03-06T00:31:49;95328.84;;;2.46;100.00
69926;BME280;57217;47.286;8.530;2024-03-06T01:01:51;95336.91;;;2.13;100.00
69926;BME280;57217;47.286;8.530;2024-03-06T01:31:58;95338.59;;;1.93;100.00
69926;BME280;57217;47.286;8.530;2024-03-06T02:02:01;95317.78;;;1.81;100.00
69926;BME280;57217;47.286;8.530;2024-03-06T02:32:03;95328.09;;;1.77;100.00
69926;BME280;57217;47.286;8.530;2024-03-06T03:02:06;95341.22;;;1.69;100.00
69926;BME280;57217;47.286;8.530;2024-03-06T03:32:08;95349.94;;;1.48;100.00
69926;BME280;57217;47.286;8.530;2024-03-06T04:02:10;95362.75;;;1.53;100.00
69926;BME280;57217;47.286;8.530;2024-03-06T04:32:12;95376.19;;;1.55;100.00
69926;BME280;57217;47.286;8.530;2024-03-06T05:02:15;95396.19;;;1.51;100.00
69926;BME280;57217;47.286;8.530;2024-03-06T05:32:19;95432.22;;;1.49;100.00
69926;BME280;57217;47.286;8.530;2024-03-06T06:02:21;95464.53;;;1.36;100.00
69926;BME280;57217;47.286;8.530;2024-03-06T06:32:25;95490.59;;;1.48;100.00
69926;BME280;57217;47.286;8.530;2024-03-06T07:02:27;95500.81;;;1.66;100.00
69926;BME280;57217;47.286;8.530;2024-03-06T07:32:30;95525.41;;;1.77;100.00
69926;BME280;57217;47.286;8.530;2024-03-06T08:02:32;95544.31;;;2.10;100.00
69926;BME280;57217;47.286;8.530;2024-03-06T08:32:35;95568.56;;;2.23;100.00
69926;BME280;57217;47.286;8.530;2024-03-06T09:02:39;95593.34;;;2.29;100.00
69926;BME280;57217;47.286;8.530;2024-03-06T09:32:43;95616.38;;;2.88;100.00
69926;BME280;57217;47.286;8.530;2024-03-06T10:02:51;95627.25;;;2.90;100.00
69926;BME280;57217;47.286;8.530;2024-03-06T10:32:56;95642.47;;;3.00;100.00
69926;BME280;57217;47.286;8.530;2024-03-06T11:03:00;95643.09;;;3.09;100.00
69926;BME280;57217;47.286;8.530;2024-03-06T11:33:06;95649.81;;;3.63;100.00
69926;BME280;57217;47.286;8.530;2024-03-06T12:03:10;95653.16;;;3.75;100.00
69926;BME280;57217;47.286;8.530;2024-03-06T12:33:16;95638.88;;;3.45;100.00
69926;BME280;57217;47.286;8.530;2024-03-06T13:03:18;95625.63;;;4.09;100.00
69926;BME280;57217;47.286;8.530;2024-03-06T13:33:21;95632.47;;;3.70;100.00
69926;BME280;57217;47.286;8.530;2024-03-06T14:03:24;95637.94;;;3.65;100.00
69926;BME280;57217;47.286;8.530;2024-03-06T14:33:28;95651.81;;;3.01;100.00
69926;BME280;57217;47.286;8.530;2024-03-06T15:03:30;95658.50;;;3.27;100.00
69926;BME280;57217;47.286;8.530;2024-03-06T15:33:32;95643.88;;;3.50;100.00
69926;BME280;57217;47.286;8.530;2024-03-06T16:03:40;95655.25;;;3.30;100.00
69926;BME280;57217;47.286;8.530;2024-03-06T16:33:43;95679.75;;;3.13;100.00
69926;BME280;57217;47.286;8.530;2024-03-06T17:03:48;95693.91;;;3.12;100.00
69926;BME280;57217;47.286;8.530;2024-03-06T17:33:50;95708.56;;;2.55;100.00
69926;BME280;57217;47.286;8.530;2024-03-06T18:03:53;95710.75;;;2.53;100.00
69926;BME280;57217;47.286;8.530;2024-03-06T19:05:30;95737.09;;;2.61;100.00
69926;BME280;57217;47.286;8.530;2024-03-06T19:35:34;95723.31;;;2.72;100.00
69926;BME280;57217;47.286;8.530;2024-03-06T20:05:40;95718.25;;;2.55;100.00
69926;BME280;57217;47.286;8.530;2024-03-06T20:35:43;95714.78;;;2.51;100.00
69926;BME280;57217;47.286;8.530;2024-03-06T21:05:46;95698.56;;;2.45;100.00
69926;BME280;57217;47.286;8.530;2024-03-06T21:35:48;95702.59;;;2.55;100.00
69926;BME280;57217;47.286;8.530;2024-03-06T22:05:50;95695.63;;;2.47;100.00
69926;BME280;57217;47.286;8.530;2024-03-06T22:35:53;95671.63;;;2.66;100.00
69926;BME280;57217;47.286;8.530;2024-03-06T23:05:57;95664.91;;;2.77;100.00
69926;BME280;57217;47.286;8.530;2024-03-06T23:36:00;95639.56;;;2.77;100.00
